createdAt,value
2022-09-06T04:45:56.811Z,1003.33
2022-09-06T04:46:57.746Z,1003.33
2022-09-06T04:47:57.715Z,1003.35
2022-09-06T04:48:57.731Z,1003.37
2022-09-06T04:49:57.695Z,1003.36
2022-09-06T04:50:57.694Z,1003.37
2022-09-06T04:51:57.680Z,1003.38
2022-09-06T04:52:57.691Z,1003.38
2022-09-06T04:53:57.693Z,1003.38
2022-09-06T04:54:57.659Z,1003.39
2022-09-06T04:55:57.664Z,1003.39
2022-09-06T04:56:57.630Z,1003.40
2022-09-06T04:57:57.622Z,1003.43
2022-09-06T04:58:57.624Z,1003.43
2022-09-06T04:59:57.595Z,1003.43
2022-09-06T05:00:57.647Z,1003.43
2022-09-06T05:01:57.650Z,1003.45
2022-09-06T05:02:57.572Z,1003.46
2022-09-06T05:03:57.558Z,1003.47
2022-09-06T05:04:57.547Z,1003.45
2022-09-06T05:05:57.537Z,1003.45
2022-09-06T05:06:57.521Z,1003.44
2022-09-06T05:07:57.524Z,1003.46
2022-09-06T05:08:57.521Z,1003.48
2022-09-06T05:09:57.484Z,1003.50
2022-09-06T05:10:57.476Z,1003.52
2022-09-06T05:11:57.470Z,1003.52
2022-09-06T05:12:57.535Z,1003.52
2022-09-06T05:13:57.440Z,1003.53
2022-09-06T05:14:57.446Z,1003.53
2022-09-06T05:15:57.449Z,1003.52
2022-09-06T05:16:57.486Z,1003.52
2022-09-06T05:17:57.398Z,1003.52
2022-09-06T05:18:57.438Z,1003.52
2022-09-06T05:19:57.385Z,1003.52
2022-09-06T05:20:57.378Z,1003.51
2022-09-06T05:21:57.352Z,1003.51
2022-09-06T05:22:57.370Z,1003.51
2022-09-06T05:23:58.863Z,1003.52
2022-09-06T05:24:57.332Z,1003.52
2022-09-06T05:25:57.353Z,1003.52
2022-09-06T05:26:57.305Z,1003.52
2022-09-06T05:27:57.365Z,1003.52
2022-09-06T05:28:57.281Z,1003.52
2022-09-06T05:29:57.273Z,1003.52
2022-09-06T05:30:57.259Z,1003.51
2022-09-06T05:31:57.317Z,1003.52
2022-09-06T05:32:57.254Z,1003.52
2022-09-06T05:33:57.219Z,1003.53
2022-09-06T05:34:57.220Z,1003.54
2022-09-06T05:35:57.247Z,1003.53
2022-09-06T05:36:57.204Z,1003.51
2022-09-06T05:37:57.198Z,1003.50
2022-09-06T05:38:57.177Z,1003.52
2022-09-06T05:39:57.240Z,1003.55
2022-09-06T05:40:57.152Z,1003.58
2022-09-06T05:41:57.142Z,1003.62
2022-09-06T05:42:57.146Z,1003.66
2022-09-06T05:43:57.124Z,1003.68
2022-09-06T05:44:57.109Z,1003.70
2022-09-06T05:45:57.171Z,1003.70
2022-09-06T05:46:57.091Z,1003.71
2022-09-06T05:47:57.093Z,1003.72
2022-09-06T05:48:57.080Z,1003.72
2022-09-06T05:49:57.065Z,1003.70
2022-09-06T05:50:57.049Z,1003.69
2022-09-06T05:51:57.037Z,1003.68
2022-09-06T05:52:57.050Z,1003.69
2022-09-06T05:53:57.019Z,1003.71
2022-09-06T05:54:57.003Z,1003.73
2022-09-06T05:55:57.022Z,1003.75
2022-09-06T05:56:56.989Z,1003.76
2022-09-06T05:57:56.991Z,1003.76
2022-09-06T05:58:56.970Z,1003.76
2022-09-06T05:59:56.947Z,1003.75
2022-09-06T06:00:56.980Z,1003.74
2022-09-06T06:01:56.978Z,1003.73
2022-09-06T06:02:56.938Z,1003.72
2022-09-06T06:03:56.906Z,1003.74
2022-09-06T06:04:56.911Z,1003.75
2022-09-06T06:05:56.887Z,1003.77
2022-09-06T06:06:56.892Z,1003.79
2022-09-06T06:07:56.874Z,1003.80
2022-09-06T06:08:56.859Z,1003.79
2022-09-06T06:09:56.848Z,1003.77
2022-09-06T06:10:56.843Z,1003.77
2022-09-06T06:11:56.823Z,1003.80
2022-09-06T06:12:56.847Z,1003.83
2022-09-06T06:13:56.812Z,1003.87
2022-09-06T06:14:56.803Z,1003.90
2022-09-06T06:15:56.780Z,1003.89
2022-09-06T06:16:56.899Z,1003.87
2022-09-06T06:17:56.766Z,1003.84
2022-09-06T06:18:56.804Z,1003.81
2022-09-06T06:19:56.746Z,1003.79
2022-09-06T06:20:56.735Z,1003.79
2022-09-06T06:21:56.720Z,1003.79
2022-09-06T06:22:56.719Z,1003.78
2022-09-06T06:23:56.722Z,1003.76
2022-09-06T06:24:56.693Z,1003.72
2022-09-06T06:25:56.681Z,1003.67
2022-09-06T06:26:56.667Z,1003.64
2022-09-06T06:27:56.653Z,1003.62
2022-09-06T06:28:56.662Z,1003.63
2022-09-06T06:29:56.627Z,1003.65
2022-09-06T06:30:56.631Z,1003.64
2022-09-06T06:31:56.673Z,1003.63
2022-09-06T06:32:56.612Z,1003.61
2022-09-06T06:33:56.608Z,1003.60
2022-09-06T06:34:56.600Z,1003.58
2022-09-06T06:35:56.566Z,1003.58
2022-09-06T06:36:56.569Z,1003.57
2022-09-06T06:37:56.600Z,1003.57
2022-09-06T06:38:56.552Z,1003.57
2022-09-06T06:39:56.576Z,1003.59
2022-09-06T06:41:00.978Z,1003.63
2022-09-06T06:41:56.513Z,1003.67
2022-09-06T06:42:56.499Z,1003.70
2022-09-06T06:43:56.494Z,1003.72
2022-09-06T06:44:56.475Z,1003.72
2022-09-06T06:45:56.492Z,1003.71
2022-09-06T06:46:56.456Z,1003.69
2022-09-06T06:47:56.437Z,1003.65
2022-09-06T06:48:56.453Z,1003.60
2022-09-06T06:49:56.450Z,1003.56
2022-09-06T06:50:56.410Z,1003.52
2022-09-06T06:51:56.396Z,1003.49
2022-09-06T06:52:56.405Z,1003.48
2022-09-06T06:53:56.399Z,1003.49
2022-09-06T06:54:56.368Z,1003.50
2022-09-06T06:55:56.371Z,1003.51
2022-09-06T06:56:56.347Z,1003.53
2022-09-06T06:57:56.334Z,1003.53
2022-09-06T06:58:56.338Z,1003.54
2022-09-06T06:59:56.310Z,1003.54
2022-09-06T07:00:56.439Z,1003.53
2022-09-06T07:01:56.419Z,1003.53
2022-09-06T07:02:56.284Z,1003.52
2022-09-06T07:03:56.285Z,1003.51
2022-09-06T07:04:56.270Z,1003.50
2022-09-06T07:06:12.388Z,1003.49
2022-09-06T07:07:56.228Z,1003.46
2022-09-06T07:08:56.251Z,1003.44
2022-09-06T07:10:56.210Z,1003.43
2022-09-06T07:11:56.183Z,1003.44
2022-09-06T07:12:56.176Z,1003.44
2022-09-06T07:13:56.159Z,1003.45
2022-09-06T07:14:56.168Z,1003.45
2022-09-06T07:15:56.207Z,1003.44
2022-09-06T07:16:56.135Z,1003.43
2022-09-06T07:17:56.124Z,1003.42
2022-09-06T07:18:56.114Z,1003.40
2022-09-06T07:21:56.102Z,1003.33
2022-09-06T07:22:56.191Z,1003.32
2022-09-06T07:24:11.343Z,1003.31
2022-09-06T07:24:56.069Z,1003.31
2022-09-06T07:25:56.051Z,1003.33
2022-09-06T07:27:56.028Z,1003.37
2022-09-06T07:28:55.999Z,1003.37
2022-09-06T07:29:56.026Z,1003.37
2022-09-06T07:30:55.993Z,1003.38
2022-09-06T07:32:11.572Z,1003.38
2022-09-06T07:32:55.969Z,1003.39
2022-09-06T07:33:55.967Z,1003.41
2022-09-06T07:34:55.957Z,1003.40
2022-09-06T07:35:55.943Z,1003.40
2022-09-06T07:36:55.925Z,1003.43
2022-09-06T07:37:55.942Z,1003.41
2022-09-06T07:38:55.899Z,1003.43
2022-09-06T07:39:55.995Z,1003.43
2022-09-06T07:40:55.879Z,1003.43
2022-09-06T07:41:55.889Z,1003.42
2022-09-06T07:42:55.853Z,1003.42
2022-09-06T07:43:55.861Z,1003.40
2022-09-06T07:44:55.878Z,1003.40
2022-09-06T07:45:55.834Z,1003.39
2022-09-06T07:47:59.061Z,1003.39
2022-09-06T07:48:55.799Z,1003.37
2022-09-06T07:50:58.935Z,1003.35
2022-09-06T07:51:55.769Z,1003.33
2022-09-06T07:53:15.602Z,1003.31
2022-09-06T07:54:12.805Z,1003.29
2022-09-06T07:54:55.739Z,1003.29
2022-09-06T07:55:55.739Z,1003.29
2022-09-06T07:56:55.726Z,1003.29
2022-09-06T07:57:55.707Z,1003.30
2022-09-06T07:58:55.690Z,1003.30
2022-09-06T07:59:55.713Z,1003.31
2022-09-06T08:00:55.706Z,1003.33
2022-09-06T08:01:55.742Z,1003.32
2022-09-06T08:02:55.662Z,1003.33
2022-09-06T08:03:55.674Z,1003.35
2022-09-06T08:04:55.641Z,1003.33
2022-09-06T08:06:11.157Z,1003.32
2022-09-06T08:09:55.605Z,1003.33
2022-09-06T08:10:55.566Z,1003.35
2022-09-06T08:11:55.566Z,1003.36
2022-09-06T08:12:55.554Z,1003.37
2022-09-06T08:13:55.542Z,1003.38
2022-09-06T08:14:55.536Z,1003.38
2022-09-06T08:15:55.567Z,1003.40
2022-09-06T08:16:55.513Z,1003.40
2022-09-06T08:17:55.503Z,1003.40
2022-09-06T08:18:55.498Z,1003.40
2022-09-06T08:19:55.501Z,1003.39
2022-09-06T08:20:55.471Z,1003.39
2022-09-06T08:21:55.455Z,1003.40
2022-09-06T08:22:55.443Z,1003.39
2022-09-06T08:23:55.438Z,1003.38
2022-09-06T08:24:55.424Z,1003.39
2022-09-06T08:25:55.443Z,1003.38
2022-09-06T08:26:55.434Z,1003.36
2022-09-06T08:27:55.402Z,1003.36
2022-09-06T08:28:55.388Z,1003.35
2022-09-06T08:29:55.409Z,1003.35
2022-09-06T08:30:55.366Z,1003.36
2022-09-06T08:31:55.425Z,1003.36
2022-09-06T08:32:55.416Z,1003.38
2022-09-06T08:33:55.345Z,1003.38
2022-09-06T08:34:55.349Z,1003.40
2022-09-06T08:35:55.352Z,1003.41
2022-09-06T08:36:55.314Z,1003.42
2022-09-06T08:37:55.309Z,1003.41
2022-09-06T08:38:55.290Z,1003.41
2022-09-06T08:39:55.356Z,1003.40
2022-09-06T08:40:55.277Z,1003.40
2022-09-06T08:41:55.254Z,1003.39
2022-09-06T08:42:55.254Z,1003.39
2022-09-06T08:44:57.558Z,1003.38
2022-09-06T08:45:55.884Z,1003.38
2022-09-06T08:46:55.249Z,1003.38
2022-09-06T08:47:55.232Z,1003.37
2022-09-06T08:48:55.181Z,1003.36
2022-09-06T08:49:55.174Z,1003.37
2022-09-06T08:50:55.169Z,1003.36
2022-09-06T08:51:55.148Z,1003.34
2022-09-06T08:53:13.607Z,1003.33
2022-09-06T08:53:55.132Z,1003.30
2022-09-06T08:54:55.120Z,1003.30
2022-09-06T08:55:55.133Z,1003.29
2022-09-06T08:56:55.095Z,1003.28
2022-09-06T08:57:55.092Z,1003.26
2022-09-06T08:58:55.098Z,1003.24
2022-09-06T08:59:55.068Z,1003.24
2022-09-06T09:00:55.122Z,1003.26
2022-09-06T09:01:55.124Z,1003.27
2022-09-06T09:02:55.036Z,1003.24
2022-09-06T09:03:55.027Z,1003.25
2022-09-06T09:04:55.018Z,1003.24
2022-09-06T09:05:55.032Z,1003.25
2022-09-06T09:06:54.992Z,1003.24
2022-09-06T09:07:54.994Z,1003.23
2022-09-06T09:08:55.021Z,1003.21
2022-09-06T09:09:54.970Z,1003.19
2022-09-06T09:10:54.970Z,1003.19
2022-09-06T09:11:54.958Z,1003.18
2022-09-06T09:12:54.935Z,1003.15
2022-09-06T09:13:56.083Z,1003.13
2022-09-06T09:14:54.915Z,1003.12
2022-09-06T09:15:55.016Z,1003.11
2022-09-06T09:16:54.894Z,1003.09
2022-09-06T09:17:54.896Z,1003.07
2022-09-06T09:18:54.881Z,1003.07
2022-09-06T09:19:54.871Z,1003.06
2022-09-06T09:20:54.871Z,1003.07
2022-09-06T09:21:54.850Z,1003.05
2022-09-06T09:22:54.836Z,1003.04
2022-09-06T09:23:54.840Z,1003.06
2022-09-06T09:24:54.813Z,1003.05
2022-09-06T09:25:54.821Z,1003.03
2022-09-06T09:26:54.801Z,1003.06
2022-09-06T09:27:54.790Z,1003.03
2022-09-06T09:28:54.774Z,1003.04
2022-09-06T09:30:54.776Z,1003.04
2022-09-06T09:31:54.812Z,1003.03
2022-09-06T09:32:54.746Z,1003.03
2022-09-06T09:33:54.740Z,1003.04
2022-09-06T09:34:54.720Z,1003.02
2022-09-06T09:35:54.730Z,1002.99
2022-09-06T09:37:57.457Z,1002.97
2022-09-06T09:38:54.683Z,1002.98
2022-09-06T09:39:54.735Z,1002.97
2022-09-06T09:40:54.678Z,1002.97
2022-09-06T09:41:54.661Z,1002.95
2022-09-06T09:42:54.643Z,1002.95
2022-09-06T09:43:54.634Z,1002.93
2022-09-06T09:44:54.616Z,1002.92
2022-09-06T09:45:54.632Z,1002.92
2022-09-06T09:46:54.633Z,1002.90
2022-09-06T09:47:54.623Z,1002.92
2022-09-06T09:48:54.575Z,1002.89
2022-09-06T09:49:54.571Z,1002.91
2022-09-06T09:50:54.581Z,1002.88
2022-09-06T09:51:54.545Z,1002.86
2022-09-06T09:52:54.531Z,1002.86
2022-09-06T09:53:54.550Z,1002.86
2022-09-06T09:54:54.512Z,1002.88
2022-09-06T09:55:54.529Z,1002.87
2022-09-06T09:56:54.499Z,1002.86
2022-09-06T09:57:54.489Z,1002.85
2022-09-06T09:58:54.472Z,1002.84
2022-09-06T09:59:54.493Z,1002.81
2022-09-06T10:00:54.502Z,1002.79
2022-09-06T10:01:54.463Z,1002.79
2022-09-06T10:02:54.438Z,1002.78
2022-09-06T10:04:54.430Z,1002.76
2022-09-06T10:05:58.931Z,1002.74
2022-09-06T10:07:10.214Z,1002.72
2022-09-06T10:07:54.403Z,1002.73
2022-09-06T10:08:54.373Z,1002.76
2022-09-06T10:09:54.388Z,1002.74
2022-09-06T10:10:54.350Z,1002.74
2022-09-06T10:11:54.368Z,1002.74
2022-09-06T10:12:54.343Z,1002.73
2022-09-06T10:13:54.329Z,1002.70
2022-09-06T10:14:54.321Z,1002.70
2022-09-06T10:15:54.360Z,1002.69
2022-09-06T10:16:54.314Z,1002.69
2022-09-06T10:17:54.285Z,1002.67
2022-09-06T10:18:54.275Z,1002.64
2022-09-06T10:19:54.267Z,1002.62
2022-09-06T10:20:54.249Z,1002.62
2022-09-06T10:21:54.264Z,1002.60
2022-09-06T10:22:54.233Z,1002.58
2022-09-06T10:24:54.220Z,1002.54
2022-09-06T10:25:54.214Z,1002.55
2022-09-06T10:26:54.202Z,1002.54
2022-09-06T10:28:10.393Z,1002.52
2022-09-06T10:28:54.182Z,1002.47
2022-09-06T10:29:54.169Z,1002.51
2022-09-06T10:30:54.247Z,1002.51
2022-09-06T10:31:54.178Z,1002.48
2022-09-06T10:32:54.140Z,1002.48
2022-09-06T10:33:54.130Z,1002.44
2022-09-06T10:34:54.125Z,1002.44
2022-09-06T10:35:54.122Z,1002.43
2022-09-06T10:36:54.093Z,1002.42
2022-09-06T10:37:54.100Z,1002.41
2022-09-06T10:38:54.072Z,1002.40
2022-09-06T10:39:54.125Z,1002.38
2022-09-06T10:40:54.081Z,1002.38
2022-09-06T10:41:54.049Z,1002.37
2022-09-06T10:42:54.040Z,1002.36
2022-09-06T10:43:54.034Z,1002.38
2022-09-06T10:44:54.013Z,1002.36
2022-09-06T10:45:54.015Z,1002.34
2022-09-06T10:46:54.091Z,1002.36
2022-09-06T10:47:54.001Z,1002.36
2022-09-06T10:48:53.973Z,1002.36
2022-09-06T10:49:53.978Z,1002.33
2022-09-06T10:50:53.957Z,1002.33
2022-09-06T10:51:53.959Z,1002.33
2022-09-06T10:52:53.947Z,1002.34
2022-09-06T10:53:53.935Z,1002.36
2022-09-06T10:54:53.916Z,1002.36
2022-09-06T10:55:53.922Z,1002.34
2022-09-06T10:56:53.910Z,1002.34
2022-09-06T10:59:53.878Z,1002.32
2022-09-06T11:00:53.858Z,1002.31
2022-09-06T11:01:53.952Z,1002.32
2022-09-06T11:03:56.972Z,1002.34
2022-09-06T11:05:53.824Z,1002.37
2022-09-06T11:06:53.814Z,1002.36
2022-09-06T11:08:57.797Z,1002.35
2022-09-06T11:09:53.777Z,1002.35
2022-09-06T11:10:53.766Z,1002.33
2022-09-06T11:11:53.802Z,1002.34
2022-09-06T11:12:53.741Z,1002.35
2022-09-06T11:13:53.747Z,1002.35
2022-09-06T11:14:53.725Z,1002.34
2022-09-06T11:15:53.752Z,1002.36
2022-09-06T11:16:53.719Z,1002.34
2022-09-06T11:17:53.705Z,1002.36
2022-09-06T11:18:53.680Z,1002.40
2022-09-06T11:19:53.681Z,1002.41
2022-09-06T11:20:53.670Z,1002.46
2022-09-06T11:21:53.679Z,1002.46
2022-09-06T11:22:53.810Z,1002.42
2022-09-06T11:23:53.646Z,1002.44
2022-09-06T11:24:53.623Z,1002.45
2022-09-06T11:25:53.620Z,1002.48
2022-09-06T11:26:53.652Z,1002.49
2022-09-06T11:27:57.774Z,1002.51
2022-09-06T11:28:53.659Z,1002.47
2022-09-06T11:29:53.581Z,1002.51
2022-09-06T11:30:53.605Z,1002.49
2022-09-06T11:32:53.605Z,1002.42
2022-09-06T11:33:53.551Z,1002.39
2022-09-06T11:34:53.535Z,1002.39
2022-09-06T11:35:53.523Z,1002.38
2022-09-06T11:36:53.527Z,1002.37
2022-09-06T11:37:53.506Z,1002.37
2022-09-06T11:38:53.493Z,1002.37
2022-09-06T11:40:53.480Z,1002.33
2022-09-06T11:41:53.467Z,1002.31
2022-09-06T11:42:53.449Z,1002.29
2022-09-06T11:43:53.440Z,1002.27
2022-09-06T11:44:53.430Z,1002.23
2022-09-06T11:45:53.418Z,1002.25
2022-09-06T11:46:53.480Z,1002.23
2022-09-06T11:47:53.397Z,1002.20
2022-09-06T11:48:53.397Z,1002.23
2022-09-06T11:49:53.390Z,1002.22
2022-09-06T11:50:53.394Z,1002.20
2022-09-06T11:51:53.371Z,1002.20
2022-09-06T11:52:53.363Z,1002.23
2022-09-06T11:53:53.339Z,1002.24
2022-09-06T11:54:53.340Z,1002.28
2022-09-06T11:55:53.325Z,1002.27
2022-09-06T11:56:53.331Z,1002.26
2022-09-06T11:57:53.301Z,1002.23
2022-09-06T11:58:53.311Z,1002.21
2022-09-06T11:59:53.284Z,1002.19
2022-09-06T12:00:53.280Z,1002.19
2022-09-06T12:01:53.279Z,1002.20
2022-09-06T12:02:53.567Z,1002.20
2022-09-06T12:04:09.763Z,1002.20
2022-09-06T12:04:54.478Z,1002.18
2022-09-06T12:05:53.223Z,1002.19
2022-09-06T12:06:53.254Z,1002.20
2022-09-06T12:07:53.277Z,1002.20
2022-09-06T12:08:53.201Z,1002.17
2022-09-06T12:09:53.194Z,1002.15
2022-09-06T12:10:53.188Z,1002.15
2022-09-06T12:11:53.165Z,1002.12
2022-09-06T12:12:53.178Z,1002.15
2022-09-06T12:13:53.155Z,1002.17
2022-09-06T12:14:53.192Z,1002.19
2022-09-06T12:15:53.263Z,1002.19
2022-09-06T12:16:53.131Z,1002.22
2022-09-06T12:17:53.189Z,1002.20
2022-09-06T12:18:53.115Z,1002.20
2022-09-06T12:19:53.103Z,1002.19
2022-09-06T12:20:53.098Z,1002.17
2022-09-06T12:21:53.081Z,1002.17
2022-09-06T12:22:53.083Z,1002.19
2022-09-06T12:23:53.053Z,1002.17
2022-09-06T12:24:53.055Z,1002.14
2022-09-06T12:25:53.042Z,1002.13
2022-09-06T12:26:55.628Z,1002.14
2022-09-06T12:27:53.025Z,1002.13
2022-09-06T12:28:53.010Z,1002.15
2022-09-06T12:29:52.997Z,1002.16
2022-09-06T12:30:53.016Z,1002.12
2022-09-06T12:31:53.037Z,1002.08
2022-09-06T12:32:52.981Z,1002.05
2022-09-06T12:33:52.956Z,1002.03
2022-09-06T12:35:58.265Z,1001.98
2022-09-06T12:36:52.931Z,1001.95
2022-09-06T12:37:52.938Z,1001.91
2022-09-06T12:38:52.911Z,1001.88
2022-09-06T12:39:52.961Z,1001.82
2022-09-06T12:40:52.903Z,1001.82
2022-09-06T12:41:52.876Z,1001.82
2022-09-06T12:42:52.886Z,1001.88
2022-09-06T12:43:52.866Z,1001.84
2022-09-06T12:44:52.853Z,1001.85
2022-09-06T12:45:52.851Z,1001.87
2022-09-06T12:46:52.898Z,1001.85
2022-09-06T12:47:52.834Z,1001.86
2022-09-06T12:48:52.815Z,1001.86
2022-09-06T12:49:52.806Z,1001.86
2022-09-06T12:50:52.812Z,1001.86
2022-09-06T12:51:52.792Z,1001.84
2022-09-06T12:52:52.800Z,1001.84
2022-09-06T12:53:52.778Z,1001.85
2022-09-06T12:54:52.759Z,1001.83
2022-09-06T12:55:52.796Z,1001.87
2022-09-06T12:56:52.738Z,1001.84
2022-09-06T12:57:52.799Z,1001.84
2022-09-06T12:58:52.722Z,1001.83
2022-09-06T12:59:52.707Z,1001.81
2022-09-06T13:00:52.701Z,1001.79
2022-09-06T13:01:52.823Z,1001.77
2022-09-06T13:02:52.897Z,1001.75
2022-09-06T13:03:52.690Z,1001.76
2022-09-06T13:04:52.665Z,1001.75
2022-09-06T13:05:52.659Z,1001.74
2022-09-06T13:06:52.650Z,1001.74
2022-09-06T13:07:52.628Z,1001.73
2022-09-06T13:08:52.663Z,1001.72
2022-09-06T13:09:52.614Z,1001.73
2022-09-06T13:10:52.623Z,1001.72
2022-09-06T13:11:52.594Z,1001.73
2022-09-06T13:12:52.608Z,1001.73
2022-09-06T13:13:52.592Z,1001.70
2022-09-06T13:14:52.572Z,1001.70
2022-09-06T13:15:52.624Z,1001.70
2022-09-06T13:16:52.557Z,1001.66
2022-09-06T13:17:52.557Z,1001.65
2022-09-06T13:18:52.538Z,1001.66
2022-09-06T13:19:52.560Z,1001.65
2022-09-06T13:20:52.516Z,1001.62
2022-09-06T13:21:52.513Z,1001.64
2022-09-06T13:22:52.507Z,1001.66
2022-09-06T13:23:52.482Z,1001.65
2022-09-06T13:24:52.478Z,1001.65
2022-09-06T13:25:52.473Z,1001.65
2022-09-06T13:26:52.457Z,1001.62
2022-09-06T13:27:52.464Z,1001.63
2022-09-06T13:28:52.434Z,1001.64
2022-09-06T13:29:52.425Z,1001.65
2022-09-06T13:30:52.455Z,1001.60
2022-09-06T13:31:52.414Z,1001.58
2022-09-06T13:32:52.421Z,1001.59
2022-09-06T13:33:52.388Z,1001.59
2022-09-06T13:34:52.393Z,1001.58
2022-09-06T13:35:52.376Z,1001.62
2022-09-06T13:36:52.367Z,1001.57
2022-09-06T13:37:52.372Z,1001.55
2022-09-06T13:38:52.349Z,1001.59
2022-09-06T13:39:52.425Z,1001.54
2022-09-06T13:41:52.312Z,1001.57
2022-09-06T13:42:52.330Z,1001.59
2022-09-06T13:43:52.288Z,1001.57
2022-09-06T13:44:52.284Z,1001.56
2022-09-06T13:45:52.316Z,1001.55
2022-09-06T13:46:52.273Z,1001.55
2022-09-06T13:47:59.970Z,1001.57
2022-09-06T13:48:52.258Z,1001.57
2022-09-06T13:49:52.263Z,1001.54
2022-09-06T13:50:52.236Z,1001.52
2022-09-06T13:51:52.261Z,1001.53
2022-09-06T13:52:52.218Z,1001.54
2022-09-06T13:53:52.201Z,1001.51
2022-09-06T13:54:52.187Z,1001.51
2022-09-06T13:55:52.175Z,1001.46
2022-09-06T13:56:52.167Z,1001.42
2022-09-06T13:57:52.174Z,1001.43
2022-09-06T13:58:52.158Z,1001.42
2022-09-06T13:59:52.141Z,1001.47
2022-09-06T14:00:52.135Z,1001.47
2022-09-06T14:01:52.233Z,1001.48
2022-09-06T14:02:52.247Z,1001.49
2022-09-06T14:03:52.118Z,1001.49
2022-09-06T14:04:52.093Z,1001.50
2022-09-06T14:05:52.097Z,1001.49
2022-09-06T14:06:52.069Z,1001.50
2022-09-06T14:07:52.058Z,1001.49
2022-09-06T14:09:08.469Z,1001.49
2022-09-06T14:09:52.049Z,1001.46
2022-09-06T14:10:52.030Z,1001.49
2022-09-06T14:11:52.031Z,1001.47
2022-09-06T14:12:52.083Z,1001.45
2022-09-06T14:13:52.027Z,1001.43
2022-09-06T14:14:51.997Z,1001.44
2022-09-06T14:15:52.027Z,1001.45
2022-09-06T14:16:51.969Z,1001.50
2022-09-06T14:17:51.954Z,1001.46
2022-09-06T14:18:51.984Z,1001.49
2022-09-06T14:19:51.939Z,1001.48
2022-09-06T14:20:51.935Z,1001.47
2022-09-06T14:21:51.923Z,1001.47
2022-09-06T14:22:51.910Z,1001.45
2022-09-06T14:23:51.923Z,1001.44
2022-09-06T14:24:51.899Z,1001.46
2022-09-06T14:25:51.875Z,1001.46
2022-09-06T14:26:51.877Z,1001.46
2022-09-06T14:27:51.875Z,1001.43
2022-09-06T14:28:51.866Z,1001.43
2022-09-06T14:29:51.834Z,1001.43
2022-09-06T14:30:51.941Z,1001.41
2022-09-06T14:31:51.823Z,1001.40
2022-09-06T14:32:51.823Z,1001.37
2022-09-06T14:33:51.829Z,1001.35
2022-09-06T14:34:51.789Z,1001.35
2022-09-06T14:35:51.779Z,1001.35
2022-09-06T14:36:51.786Z,1001.33
2022-09-06T14:37:51.757Z,1001.31
2022-09-06T14:38:51.764Z,1001.30
2022-09-06T14:39:51.808Z,1001.30
2022-09-06T14:40:51.750Z,1001.28
2022-09-06T14:41:51.725Z,1001.28
2022-09-06T14:42:51.707Z,1001.28
2022-09-06T14:43:51.714Z,1001.28
2022-09-06T14:44:51.693Z,1001.27
2022-09-06T14:45:51.751Z,1001.30
2022-09-06T14:46:51.666Z,1001.24
2022-09-06T14:47:51.670Z,1001.32
2022-09-06T14:48:51.676Z,1001.31
2022-09-06T14:49:51.641Z,1001.31
2022-09-06T14:50:51.627Z,1001.29
2022-09-06T14:51:51.623Z,1001.29
2022-09-06T14:52:51.639Z,1001.27
2022-09-06T14:53:51.615Z,1001.23
2022-09-06T14:54:51.598Z,1001.21
2022-09-06T14:55:51.572Z,1001.21
2022-09-06T14:56:51.575Z,1001.18
2022-09-06T14:57:51.558Z,1001.21
2022-09-06T14:58:51.563Z,1001.18
2022-09-06T14:59:51.540Z,1001.16
2022-09-06T15:00:51.534Z,1001.18
2022-09-06T15:01:51.599Z,1001.17
2022-09-06T15:02:51.585Z,1001.15
2022-09-06T15:03:51.511Z,1001.13
2022-09-06T15:04:51.489Z,1001.14
2022-09-06T15:05:51.493Z,1001.14
2022-09-06T15:06:51.470Z,1001.17
2022-09-06T15:07:51.451Z,1001.15
2022-09-06T15:08:52.842Z,1001.14
2022-09-06T15:09:51.429Z,1001.11
2022-09-06T15:10:51.452Z,1001.12
2022-09-06T15:11:51.418Z,1001.13
2022-09-06T15:12:51.421Z,1001.16
2022-09-06T15:13:51.418Z,1001.12
2022-09-06T15:14:51.395Z,1001.11
2022-09-06T15:15:51.494Z,1001.10
2022-09-06T15:16:55.580Z,1001.06
2022-09-06T15:17:51.371Z,1001.08
2022-09-06T15:18:51.378Z,1001.08
2022-09-06T15:19:51.339Z,1001.07
2022-09-06T15:20:51.324Z,1001.06
2022-09-06T15:21:51.318Z,1001.05
2022-09-06T15:23:09.082Z,1001.04
2022-09-06T15:23:51.328Z,1001.03
2022-09-06T15:24:51.319Z,1001.02
2022-09-06T15:25:51.273Z,1001.00
2022-09-06T15:26:51.274Z,1000.98
2022-09-06T15:27:51.262Z,1000.96
2022-09-06T15:28:51.282Z,1000.94
2022-09-06T15:29:51.240Z,1000.93
2022-09-06T15:30:51.277Z,1000.92
2022-09-06T15:31:51.210Z,1000.91
2022-09-06T15:32:51.206Z,1000.89
2022-09-06T15:33:51.216Z,1000.87
2022-09-06T15:34:51.186Z,1000.84
2022-09-06T15:35:51.186Z,1000.82
2022-09-06T15:36:51.169Z,1000.79
2022-09-06T15:37:51.217Z,1000.75
2022-09-06T15:38:51.158Z,1000.78
2022-09-06T15:39:51.246Z,1000.69
2022-09-06T15:40:51.124Z,1000.73
2022-09-06T15:41:51.142Z,1000.73
2022-09-06T15:42:51.107Z,1000.70
2022-09-06T15:43:51.127Z,1000.70
2022-09-06T15:44:51.106Z,1000.71
2022-09-06T15:45:51.097Z,1000.72
2022-09-06T15:46:51.069Z,1000.69
2022-09-06T15:47:51.064Z,1000.72
2022-09-06T15:48:51.076Z,1000.70
2022-09-06T15:49:51.047Z,1000.69
2022-09-06T15:50:51.952Z,1000.71
2022-09-06T15:51:51.018Z,1000.67
2022-09-06T15:52:51.016Z,1000.68
2022-09-06T15:53:51.020Z,1000.69
2022-09-06T15:54:50.992Z,1000.69
2022-09-06T15:55:50.989Z,1000.71
2022-09-06T15:56:50.967Z,1000.71
2022-09-06T15:57:50.973Z,1000.71
2022-09-06T15:58:50.974Z,1000.69
2022-09-06T15:59:50.951Z,1000.70
2022-09-06T16:00:54.019Z,1000.70
2022-09-06T16:01:51.007Z,1000.70
2022-09-06T16:02:50.979Z,1000.68
2022-09-06T16:03:50.936Z,1000.66
2022-09-06T16:04:50.892Z,1000.65
2022-09-06T16:06:50.879Z,1000.65
2022-09-06T16:07:50.859Z,1000.66
2022-09-06T16:08:50.848Z,1000.66
2022-09-06T16:09:50.836Z,1000.66
2022-09-06T16:10:50.829Z,1000.66
2022-09-06T16:11:50.815Z,1000.65
2022-09-06T16:12:50.816Z,1000.63
2022-09-06T16:13:50.819Z,1000.63
2022-09-06T16:14:50.795Z,1000.61
2022-09-06T16:15:50.777Z,1000.61
2022-09-06T16:16:50.836Z,1000.61
2022-09-06T16:17:50.756Z,1000.61
2022-09-06T16:18:50.765Z,1000.59
2022-09-06T16:19:50.745Z,1000.60
2022-09-06T16:20:50.728Z,1000.61
2022-09-06T16:21:50.713Z,1000.62
2022-09-06T16:22:50.702Z,1000.64
2022-09-06T16:23:50.734Z,1000.65
2022-09-06T16:24:50.694Z,1000.64
2022-09-06T16:25:50.674Z,1000.64
2022-09-06T16:26:50.670Z,1000.62
2022-09-06T16:27:50.651Z,1000.61
2022-09-06T16:28:50.648Z,1000.60
2022-09-06T16:29:50.655Z,1000.58
2022-09-06T16:30:50.719Z,1000.58
2022-09-06T16:31:50.619Z,1000.57
2022-09-06T16:32:50.601Z,1000.57
2022-09-06T16:33:50.618Z,1000.58
2022-09-06T16:34:50.601Z,1000.59
2022-09-06T16:35:50.571Z,1000.58
2022-09-06T16:36:50.561Z,1000.57
2022-09-06T16:37:50.565Z,1000.57
2022-09-06T16:38:50.558Z,1000.58
2022-09-06T16:39:50.635Z,1000.57
2022-09-06T16:40:50.530Z,1000.58
2022-09-06T16:41:50.513Z,1000.59
2022-09-06T16:42:50.531Z,1000.58
2022-09-06T16:43:50.496Z,1000.58
2022-09-06T16:44:50.495Z,1000.59
2022-09-06T16:45:50.495Z,1000.57
2022-09-06T16:46:50.460Z,1000.60
2022-09-06T16:47:50.461Z,1000.59
2022-09-06T16:48:50.447Z,1000.60
2022-09-06T16:49:50.441Z,1000.58
2022-09-06T16:50:50.424Z,1000.57
2022-09-06T16:51:50.412Z,1000.58
2022-09-06T16:52:50.399Z,1000.58
2022-09-06T16:53:50.408Z,1000.57
2022-09-06T16:54:50.396Z,1000.57
2022-09-06T16:55:50.374Z,1000.56
2022-09-06T16:56:50.355Z,1000.57
2022-09-06T16:57:50.352Z,1000.56
2022-09-06T16:58:50.339Z,1000.57
2022-09-06T16:59:50.359Z,1000.58
2022-09-06T17:00:50.313Z,1000.58
2022-09-06T17:01:50.449Z,1000.60
2022-09-06T17:02:50.334Z,1000.60
2022-09-06T17:03:50.297Z,1000.62
2022-09-06T17:04:50.287Z,1000.61
2022-09-06T17:05:50.271Z,1000.61
2022-09-06T17:06:50.259Z,1000.61
2022-09-06T17:07:50.253Z,1000.62
2022-09-06T17:08:50.233Z,1000.61
2022-09-06T17:09:50.259Z,1000.62
2022-09-06T17:10:50.218Z,1000.62
2022-09-06T17:11:50.502Z,1000.62
2022-09-06T17:12:50.194Z,1000.62
2022-09-06T17:13:50.201Z,1000.61
2022-09-06T17:14:50.193Z,1000.62
2022-09-06T17:15:50.182Z,1000.61